Latest Weather Observations for Weipa

IDQ60801

Issued at 7:35 pm EST Wednesday 22 October 2014 (issued every 30 minutes, with the page automatically refreshed every 10 minutes)

About weather observations | Map of weather stations | Latest weather observations for QLD | Other Formats
Station Details ID: 027045 Name: WEIPA AERO Lat: -12.68 Lon: 141.92 Height: 17.96 m
Data from the previous 72 hours. | See also: Recent months at Weipa
Date/Time
EST
Temp
°C
App
Temp
°C
Dew
Point
Rel
Hum
%
Delta-T
°C
Wind Press
QNH
hPa
Press
MSL
hPa
Rain
since 9 am
mm
Dir
 
Spd
km/h
Gust
km/h
Spd
kts
Gust
kts
22/07:30pm 26.1 29.8 22.3 79 2.6 NNE 6 11 3 6 1013.4 - 3.0
22/07:00pm 25.7 29.4 22.2 81 2.3 N 6 9 3 5 1012.8 - 3.0
22/06:30pm 26.1 30.3 22.4 80 2.5 E 4 6 2 3 1012.1 - 3.0
22/06:00pm 26.1 29.7 22.1 78 2.7 N 6 9 3 5 1011.4 1011.2 3.0
22/05:47pm 26.1 29.4 21.4 75 3.1 SSW 6 11 3 6 1011.4 - 3.0
22/05:36pm 26.1 29.2 21.4 75 3.1 W 7 19 4 10 1011.4 - 3.0
22/05:30pm 26.1 28.9 20.8 72 3.5 W 7 19 4 10 1011.4 - 3.0
22/05:01pm 27.7 31.0 22.6 74 3.5 WSW 9 19 5 10 1011.2 - 0.4
22/05:00pm 27.8 30.8 22.6 73 3.5 W 11 19 6 10 1011.1 - 0.2
22/04:30pm 30.9 32.1 20.6 54 6.9 W 15 22 8 12 1010.5 - 0.0
22/04:00pm 31.2 32.9 19.3 49 7.8 W 9 19 5 10 1010.5 - 0.0
22/03:30pm 31.5 32.7 20.0 50 7.6 W 13 22 7 12 1010.8 - 0.0
22/03:00pm 31.5 33.8 20.7 52 7.2 NW 9 17 5 9 1011.0 1010.8 0.0
22/02:30pm 33.8 32.6 14.0 30 12.1 E 13 20 7 11 1011.0 - 0.0
22/02:00pm 34.4 32.8 13.9 29 12.5 ESE 15 33 8 18 1011.3 - 0.0
22/01:30pm 34.3 32.3 13.9 29 12.5 ESE 17 28 9 15 1011.8 - 0.0
22/01:00pm 34.4 32.2 14.4 30 12.3 E 19 26 10 14 1012.4 - 0.0
22/12:30pm 34.2 31.8 13.8 29 12.5 ESE 19 28 10 15 1012.9 - 0.0
22/12:00pm 33.3 31.8 15.2 33 11.2 E 17 30 9 16 1013.5 1013.3 0.0
22/11:30am 33.1 31.3 15.9 35 10.8 E 20 32 11 17 1014.0 - 0.0
22/11:00am 31.9 30.4 16.8 40 9.6 ESE 20 32 11 17 1014.4 - 0.0
22/10:30am 31.1 29.9 17.6 44 8.6 E 20 32 11 17 1014.8 - 0.0
22/10:00am 30.0 28.2 17.8 48 7.8 ESE 24 35 13 19 1015.1 - 0.0
22/09:30am 28.8 26.2 17.9 51 6.9 E 28 39 15 21 1015.3 - 0.0
22/09:00am 28.0 27.2 18.4 56 6.1 ESE 20 32 11 17 1015.5 1015.3 0.0
22/08:30am 26.8 25.3 18.5 60 5.3 ESE 24 35 13 19 1015.5 - 0.0
22/08:00am 25.7 25.2 18.7 65 4.5 ESE 19 26 10 14 1015.3 - 0.0
22/07:30am 24.1 25.6 18.9 72 3.3 SE 9 13 5 7 1015.2 - 0.0
22/07:00am 22.7 24.7 18.7 78 2.5 ESE 6 11 3 6 1014.9 - 0.0
22/06:30am 21.2 23.5 18.6 85 1.6 ESE 4 6 2 3 1014.7 - 0.0
22/06:00am 21.1 23.3 18.4 84 1.7 ESE 4 7 2 4 1014.4 1014.2 0.0
22/05:30am 21.4 23.2 18.4 83 1.9 ESE 6 6 3 3 1014.0 - -
22/05:00am 21.5 23.4 18.5 83 1.9 ESE 6 6 3 3 1013.7 - -
22/04:30am 21.9 23.8 18.5 81 2.1 E 6 7 3 4 1013.5 - -
22/04:00am 21.6 24.0 18.7 83 1.8 E 4 9 2 5 1013.5 - -
22/03:30am 21.8 24.5 18.6 82 2.0 E 2 4 1 2 1013.5 - -
22/03:00am 22.4 24.8 18.8 80 2.3 E 4 6 2 3 1013.4 1013.2 -
22/02:30am 22.7 25.1 18.7 78 2.5 E 4 6 2 3 1013.6 - -
22/02:00am 23.2 25.2 18.8 76 2.8 E 6 7 3 4 1014.0 - -
22/01:30am 23.5 25.3 18.7 74 3.0 E 7 11 4 6 1014.3 - -
22/01:00am 23.8 25.6 18.7 73 3.2 E 7 13 4 7 1014.7 - -
22/12:30am 24.0 25.4 18.6 72 3.4 E 9 13 5 7 1015.0 - -
22/12:00am 24.1 25.7 18.3 70 3.7 ESE 7 13 4 7 1015.3 1015.1 -
 
Date/Time
EST
Temp
°C
App
Temp
°C
Dew
Point
Rel
Hum
%
Delta-T
°C
Wind Press
QNH
hPa
Press
MSL
hPa
Rain
since 9 am
mm
Dir
 
Spd
km/h
Gust
km/h
Spd
kts
Gust
kts
21/11:30pm 24.5 26.1 18.3 68 3.9 E 7 9 4 5 1015.7 - -
21/11:00pm 24.9 26.6 18.1 66 4.3 E 6 9 3 5 1015.8 - -
21/10:30pm 25.4 26.5 17.9 63 4.7 E 9 17 5 9 1015.6 - -
21/10:00pm 25.9 26.1 17.6 60 5.2 E 13 19 7 10 1015.4 - -
21/09:30pm 26.5 25.3 17.1 56 5.9 E 19 28 10 15 1015.0 - -
21/09:00pm 27.1 27.1 17.1 54 6.2 E 13 20 7 11 1014.9 1014.7 -
21/08:30pm 27.6 27.4 16.7 51 6.8 E 13 24 7 13 1014.6 - -
21/08:00pm 27.7 28.5 17.4 53 6.5 E 9 19 5 10 1014.5 - -
21/07:30pm 27.2 31.1 22.5 75 3.2 NNE 6 11 3 6 1014.0 - -
21/07:00pm 27.7 30.9 22.4 73 3.6 NNW 9 13 5 7 1013.4 - -
21/06:30pm 27.9 30.5 22.0 70 4.0 NW 11 15 6 8 1012.7 - -
21/06:00pm 29.1 30.7 20.0 58 6.0 WNW 11 15 6 8 1012.1 1011.9 -
21/05:30pm 30.2 32.5 19.9 54 6.8 WNW 7 13 4 7 1011.7 - -
21/05:00pm 33.0 33.4 15.3 34 11.0 NE 7 19 4 10 1011.4 - -
21/04:30pm 34.3 33.1 14.1 29 12.4 ENE 13 24 7 13 1010.8 - -
21/04:00pm 34.0 33.1 13.7 29 12.4 E 11 17 6 9 1010.7 - -
21/03:30pm 34.2 33.4 14.0 29 12.4 E 11 19 6 10 1010.8 - -
21/03:00pm 34.2 32.4 13.3 28 12.7 E 15 20 8 11 1011.1 1010.9 0.0
21/02:30pm 33.8 32.1 13.5 29 12.3 SE 15 22 8 12 1011.4 - 0.0
21/02:00pm 34.1 32.7 13.3 28 12.6 SSE 13 22 7 12 1011.6 - 0.0
21/01:30pm 35.1 33.6 13.0 26 13.4 ESE 13 30 7 16 1012.1 - 0.0
21/01:00pm 34.1 32.2 13.0 28 12.7 ESE 15 26 8 14 1012.8 - 0.0
21/12:30pm 33.9 32.4 14.2 30 12.1 ESE 15 33 8 18 1013.3 - 0.0
21/12:00pm 33.4 31.2 14.9 32 11.4 SE 20 24 11 13 1014.0 1013.8 0.0
21/11:30am 31.9 31.2 16.3 39 9.8 E 15 28 8 15 1014.5 - 0.0
21/11:00am 32.0 30.6 16.6 39 9.7 E 19 33 10 18 1014.9 - 0.0
21/10:30am 31.2 29.6 16.4 41 9.3 ESE 20 32 11 17 1015.1 - 0.0
21/10:00am 30.0 28.7 17.2 46 8.1 ESE 20 32 11 17 1015.3 - 0.0
21/09:30am 29.5 28.2 17.3 47 7.7 ESE 20 32 11 17 1015.4 - 0.0
21/09:00am 27.8 26.3 17.6 53 6.4 ESE 22 33 12 18 1015.5 1015.3 0.0
21/08:30am 27.2 26.0 18.3 58 5.7 ESE 22 32 12 17 1015.6 - 0.0
21/08:00am 25.8 25.2 18.5 64 4.6 ESE 19 30 10 16 1015.4 - 0.0
21/07:30am 24.2 25.5 18.5 70 3.6 SSE 9 15 5 8 1015.3 - 0.0
21/07:00am 22.1 24.1 18.7 81 2.1 SSE 6 7 3 4 1014.9 - 0.0
21/06:30am 20.4 22.2 18.3 88 1.3 S 6 7 3 4 1014.6 - 0.0
21/06:00am 20.2 22.3 18.1 88 1.3 SSE 4 6 2 3 1014.4 1014.2 0.0
21/05:30am 20.3 22.6 17.8 85 1.5 SSE 2 6 1 3 1014.0 - 0.0
21/05:00am 20.7 23.1 18.0 84 1.7 SSE 2 6 1 3 1013.9 - 0.0
21/04:30am 20.7 22.7 17.8 83 1.8 ESE 4 4 2 2 1013.7 - 0.0
21/04:06am 21.0 22.9 17.7 81 2.0 SE 4 4 2 2 1013.5 - 0.0
21/04:00am 21.1 23.4 17.7 81 2.1 SE 2 4 1 2 1013.4 - 0.0
21/03:37am 21.3 23.7 17.9 81 2.1 SE 2 4 1 2 1013.3 - 0.0
21/03:30am 21.3 23.7 17.9 81 2.1 SE 2 6 1 3 1013.4 - 0.0
21/03:00am 21.7 24.0 17.7 78 2.5 SE 2 4 1 2 1013.5 1013.3 0.0
21/02:30am 22.0 24.0 17.9 77 2.5 ESE 4 6 2 3 1013.8 - 0.0
21/02:00am 22.5 24.5 17.9 75 2.9 SSE 4 6 2 3 1013.9 - 0.0
21/01:30am 23.2 24.8 17.9 72 3.3 SE 6 9 3 5 1014.1 - 0.0
21/01:00am 23.4 24.9 17.7 70 3.5 SE 6 7 3 4 1014.4 - 0.0
21/12:30am 24.0 25.3 17.6 67 4.0 ESE 7 9 4 5 1014.7 - 0.0
21/12:00am 24.4 24.9 17.5 65 4.3 ESE 11 17 6 9 1014.9 1014.7 0.0
 
Date/Time
EST
Temp
°C
App
Temp
°C
Dew
Point
Rel
Hum
%
Delta-T
°C
Wind Press
QNH
hPa
Press
MSL
hPa
Rain
since 9 am
mm
Dir
 
Spd
km/h
Gust
km/h
Spd
kts
Gust
kts
20/11:30pm 24.8 24.8 17.3 63 4.7 ESE 13 19 7 10 1015.0 - 0.0
20/11:00pm 25.2 24.8 17.1 60 5.0 ESE 15 22 8 12 1015.0 - 0.0
20/10:30pm 25.5 24.9 17.5 61 5.0 E 17 26 9 14 1015.0 - 0.0
20/10:00pm 25.7 25.7 18.0 62 4.9 ESE 15 22 8 12 1014.8 - 0.0
20/09:30pm 26.1 25.0 17.8 60 5.2 E 20 32 11 17 1014.3 - 0.0
20/09:00pm 26.7 25.1 17.4 56 5.8 E 22 32 12 17 1014.1 1013.9 0.0
20/08:30pm 27.0 25.4 17.5 56 6.0 E 22 33 12 18 1013.7 - 0.0
20/08:00pm 27.5 25.4 17.2 53 6.5 E 24 37 13 20 1013.3 - 0.0
20/07:30pm 27.8 26.7 17.7 54 6.4 E 20 32 11 17 1012.8 - 0.0
20/07:00pm 28.3 27.2 17.7 52 6.7 E 20 32 11 17 1012.5 - 0.0
20/06:30pm 29.0 28.4 17.5 49 7.3 E 17 30 9 16 1012.1 - 0.0
20/06:00pm 29.9 27.3 16.9 45 8.2 E 26 37 14 20 1011.6 1011.4 0.0
20/05:30pm 30.9 29.0 16.7 42 8.9 E 22 32 12 17 1011.1 - 0.0
20/05:00pm 31.8 29.4 16.3 39 9.7 E 24 35 13 19 1010.8 - 0.0
20/04:30pm 32.5 30.1 16.3 37 10.2 E 24 35 13 19 1010.6 - 0.0
20/04:00pm 32.9 31.1 16.1 36 10.6 E 20 32 11 17 1010.6 - 0.0
20/03:30pm 33.1 29.8 16.0 35 10.7 ESE 28 41 15 22 1010.8 - 0.0
20/03:00pm 33.8 31.6 15.9 34 11.3 E 22 30 12 16 1010.8 1010.6 0.0
20/02:30pm 34.8 32.7 15.1 30 12.3 ESE 20 35 11 19 1011.0 - 0.0
20/02:00pm 33.5 30.3 15.3 33 11.3 E 26 35 14 19 1011.3 - 0.0
20/01:30pm 33.1 31.2 15.8 35 10.8 E 20 33 11 18 1011.8 - 0.0
20/01:00pm 32.1 29.7 16.4 39 9.9 E 24 35 13 19 1012.4 - 0.0
20/12:30pm 32.5 30.5 16.5 38 10.1 ESE 22 37 12 20 1013.1 - 0.0
20/12:00pm 31.6 29.2 16.5 40 9.5 E 24 43 13 23 1013.5 1013.3 0.0
20/11:30am 31.6 30.2 16.9 41 9.3 ESE 20 41 11 22 1013.9 - 0.0
20/11:00am 31.7 30.0 17.3 42 9.2 ESE 22 32 12 17 1014.5 - 0.0
20/10:30am 31.0 30.3 17.3 43 8.7 E 17 28 9 15 1014.8 - 0.0
20/10:00am 30.0 27.3 17.5 47 7.9 E 28 41 15 22 1015.2 - 0.0
20/09:30am 29.3 27.0 17.5 49 7.5 ESE 26 39 14 21 1015.4 - 0.0
20/09:00am 28.2 25.9 17.6 52 6.7 ESE 26 35 14 19 1015.6 1015.4 0.0
20/08:30am 26.8 24.9 17.6 57 5.8 ESE 24 35 13 19 1015.6 - 0.0
20/08:00am 25.7 25.2 17.7 61 5.0 SE 17 26 9 14 1015.5 - 0.0
20/07:30am 24.6 25.8 18.3 68 4.0 SE 9 15 5 8 1015.4 - 0.0
20/07:00am 23.1 24.7 18.2 74 3.1 SE 7 9 4 5 1015.2 - 0.0
20/06:30am 21.5 23.2 18.1 81 2.1 ESE 6 6 3 3 1014.8 - 0.0
20/06:00am 21.6 23.1 18.0 80 2.2 ESE 7 7 4 4 1014.4 1014.2 0.0
20/05:30am 21.4 23.0 17.9 80 2.2 ESE 6 9 3 5 1014.1 - 0.0
20/05:00am 21.8 22.9 18.1 79 2.3 ESE 9 13 5 7 1013.9 - 0.0
20/04:30am 21.9 23.0 18.1 79 2.4 ESE 9 15 5 8 1013.7 - 0.0
20/04:00am 22.0 22.8 18.1 78 2.4 ESE 11 17 6 9 1013.4 - 0.0
20/03:30am 21.6 23.0 17.9 79 2.3 ESE 7 11 4 6 1013.3 - 0.0
20/03:00am 21.6 23.2 17.8 79 2.4 ESE 6 7 3 4 1013.4 1013.2 0.0
20/02:30am 22.0 23.6 17.9 77 2.5 E 6 7 3 4 1013.6 - 0.0
20/02:00am 22.3 23.9 17.9 76 2.7 E 6 7 3 4 1013.7 - 0.0
20/01:30am 22.6 24.2 17.8 74 3.0 ESE 6 9 3 5 1014.2 - 0.0
20/01:00am 22.7 24.7 17.8 74 3.0 ESE 4 6 2 3 1014.5 - 0.0
20/12:30am 23.2 24.7 17.7 71 3.4 ESE 6 7 3 4 1014.9 - 0.0
20/12:00am 23.6 24.9 17.6 69 3.7 ESE 7 11 4 6 1015.2 1015.0 0.0
 
Date/Time
EST
Temp
°C
App
Temp
°C
Dew
Point
Rel
Hum
%
Delta-T
°C
Wind Press
QNH
hPa
Press
MSL
hPa
Rain
since 9 am
mm
Dir
 
Spd
km/h
Gust
km/h
Spd
kts
Gust
kts
19/11:30pm 24.1 25.3 17.4 66 4.2 ESE 7 11 4 6 1015.5 - 0.0
19/11:00pm 24.5 24.8 17.1 63 4.6 ESE 11 17 6 9 1015.8 - 0.0
19/10:30pm 24.9 24.0 16.8 60 5.0 ESE 17 22 9 12 1015.7 - 0.0
19/10:00pm 25.2 24.0 16.2 57 5.5 ESE 17 35 9 19 1015.7 - 0.0
19/09:30pm 25.8 24.3 15.2 52 6.4 E 17 33 9 18 1015.2 - 0.0
19/09:00pm 26.4 24.2 14.9 49 6.9 E 20 33 11 18 1014.6 1014.4 0.0
19/08:30pm 26.9 25.3 15.0 48 7.2 E 17 26 9 14 1014.0 - 0.0
19/08:00pm 27.6 25.2 14.5 44 7.9 E 20 32 11 17 1013.6 - 0.0

Other Formats:

Comma delimited format used in spreadsheet applications
http://www.bom.gov.au/fwo/IDQ60801/IDQ60801.94170.axf

JavaScript Object Notation format (JSON) in row-major order
http://www.bom.gov.au/fwo/IDQ60801/IDQ60801.94170.json